Time;durP1;ratioP1;P1;durP2;ratioP2;P2;SDS_P1;SDS_P2;PMS_P1;PMS_P2;Temp;Humidity;BMP_temperature;BMP_pressure;BME280_temperature;BME280_humidity;BME280_pressure;Samples;Min_cycle;Max_cycle;Signal;HPM_P1;HPM_P2
2022/09/09 00:01:41;;;;;;;8.80;6.53;;;14.70;99.90;;;;;;5069369;28;20048;-75
2022/09/09 00:04:28;;;;;;;11.25;7.28;;;14.70;99.90;;;;;;5069271;28;20036;-75
2022/09/09 00:07:45;;;;;;;9.48;6.65;;;14.60;99.90;;;;;;5069141;28;20098;-76
2022/09/09 00:10:31;;;;;;;9.73;6.70;;;14.60;99.90;;;;;;5011531;28;20612;-75
2022/09/09 00:13:14;;;;;;;11.40;7.00;;;14.60;99.90;;;;;;5009898;28;20381;-75
2022/09/09 00:15:56;;;;;;;14.10;6.80;;;14.50;99.90;;;;;;5026465;28;20057;-76
2022/09/09 00:18:41;;;;;;;11.23;6.07;;;14.50;99.90;;;;;;5026167;28;20487;-76
2022/09/09 00:21:12;;;;;;;9.93;6.32;;;14.50;99.90;;;;;;5026587;28;20128;-75
2022/09/09 00:23:43;;;;;;;9.70;6.47;;;14.40;99.90;;;;;;5026294;28;20069;-76
2022/09/09 00:26:32;;;;;;;11.52;7.03;;;14.40;99.90;;;;;;5027693;28;20053;-75
2022/09/09 00:29:12;;;;;;;12.00;6.53;;;14.40;99.90;;;;;;5012948;28;20120;-75
2022/09/09 00:31:38;;;;;;;10.52;6.30;;;14.40;99.90;;;;;;5013737;28;20053;-74
2022/09/09 00:34:13;;;;;;;14.02;7.22;;;14.30;99.90;;;;;;5029862;28;20053;-75
2022/09/09 00:36:40;;;;;;;13.07;7.30;;;14.30;99.90;;;;;;5029947;28;20103;-74
2022/09/09 00:39:13;;;;;;;10.63;6.53;;;14.30;99.90;;;;;;5029818;28;20058;-75
2022/09/09 00:42:04;;;;;;;9.18;6.43;;;14.30;99.90;;;;;;5013775;28;20519;-75
2022/09/09 00:44:44;;;;;;;16.10;6.32;;;14.30;99.90;;;;;;5013791;28;20890;-75
2022/09/09 00:47:30;;;;;;;10.43;5.93;;;14.30;99.90;;;;;;5052790;28;20041;-75
2022/09/09 00:50:33;;;;;;;11.15;6.90;;;14.20;99.90;;;;;;5051111;28;20049;-75
2022/09/09 00:53:46;;;;;;;10.95;6.38;;;14.20;99.90;;;;;;5052485;28;20041;-75
2022/09/09 00:56:21;;;;;;;11.13;5.55;;;14.20;99.90;;;;;;5050687;28;20057;-75
2022/09/09 00:59:12;;;;;;;11.50;5.40;;;14.20;99.90;;;;;;5051759;28;20036;-74
2022/09/09 01:01:39;;;;;;;10.95;5.82;;;14.20;99.90;;;;;;5052064;28;20045;-76
2022/09/09 01:04:16;;;;;;;13.13;5.75;;;14.10;99.90;;;;;;5052060;28;20037;-75
2022/09/09 01:06:42;;;;;;;10.18;5.63;;;14.30;99.90;;;;;;5052154;28;20056;-75
2022/09/09 01:09:36;;;;;;;12.30;5.95;;;14.10;99.90;;;;;;5052258;28;20106;-75
2022/09/09 01:12:11;;;;;;;9.23;5.57;;;14.00;99.90;;;;;;5050626;28;20125;-74
2022/09/09 01:14:37;;;;;;;13.05;4.90;;;14.00;99.90;;;;;;5050493;28;20422;-75
2022/09/09 01:17:15;;;;;;;6.95;4.82;;;14.00;99.90;;;;;;5050534;28;20053;-75
2022/09/09 01:19:44;;;;;;;13.80;5.30;;;14.00;99.90;;;;;;5050828;28;20063;-75
2022/09/09 01:22:28;;;;;;;11.48;4.95;;;14.00;99.90;;;;;;5050929;28;20048;-75
2022/09/09 01:25:13;;;;;;;8.35;4.90;;;14.00;99.90;;;;;;5051716;28;20476;-75
2022/09/09 01:27:42;;;;;;;8.50;5.30;;;13.90;99.90;;;;;;5050537;28;20131;-75
2022/09/09 01:30:14;;;;;;;8.48;5.30;;;14.10;99.90;;;;;;5051161;28;20300;-74
2022/09/09 01:32:44;;;;;;;9.45;5.15;;;13.90;99.90;;;;;;5049973;28;20053;-78
2022/09/09 01:35:30;;;;;;;9.35;5.40;;;13.80;99.90;;;;;;5051280;28;20048;-76
2022/09/09 01:37:55;;;;;;;9.38;5.07;;;13.80;99.90;;;;;;5050483;28;20044;-76
2022/09/09 01:40:21;;;;;;;13.52;5.43;;;13.80;99.90;;;;;;5050158;28;20400;-75
2022/09/09 01:42:47;;;;;;;12.75;5.97;;;13.80;99.90;;;;;;5051529;28;20080;-75
2022/09/09 01:45:13;;;;;;;10.63;6.00;;;13.80;99.90;;;;;;5051073;28;20059;-76
2022/09/09 01:47:39;;;;;;;13.60;5.65;;;13.80;99.90;;;;;;5049707;28;20040;-76
2022/09/09 01:50:07;;;;;;;10.05;6.22;;;13.80;99.90;;;;;;5051491;28;20098;-75
2022/09/09 01:52:35;;;;;;;10.82;6.32;;;13.80;99.90;;;;;;5051364;28;20052;-75
2022/09/09 01:55:01;;;;;;;10.57;6.78;;;13.80;99.90;;;;;;5051031;28;20052;-74
2022/09/09 01:57:37;;;;;;;14.25;6.78;;;13.70;99.90;;;;;;5048905;28;20053;-76
2022/09/09 02:00:13;;;;;;;11.77;7.22;;;13.80;99.90;;;;;;5049551;28;20424;-75
2022/09/09 02:03:06;;;;;;;14.07;7.78;;;13.80;99.90;;;;;;5048902;28;20049;-74
2022/09/09 02:05:40;;;;;;;12.40;6.78;;;13.80;99.90;;;;;;5047920;28;20514;-75
2022/09/09 02:08:15;;;;;;;16.80;7.30;;;13.80;99.90;;;;;;5050682;28;20059;-76
2022/09/09 02:10:51;;;;;;;11.95;7.25;;;13.80;99.90;;;;;;5059854;22;20038;-75
2022/09/09 02:13:19;;;;;;;17.50;8.27;;;13.80;99.90;;;;;;5012642;28;20144;-75
2022/09/09 02:15:45;;;;;;;13.38;7.90;;;13.90;99.90;;;;;;5029776;28;20095;-76
2022/09/09 02:18:13;;;;;;;12.23;8.18;;;13.80;99.90;;;;;;5029118;28;20049;-75
2022/09/09 02:20:40;;;;;;;14.20;7.88;;;13.80;99.90;;;;;;5030358;28;20103;-75
2022/09/09 02:23:08;;;;;;;14.15;7.85;;;13.80;99.90;;;;;;5030576;28;20042;-75
2022/09/09 02:25:36;;;;;;;12.38;8.07;;;13.70;99.90;;;;;;5028169;28;20102;-76
2022/09/09 02:28:04;;;;;;;15.45;8.63;;;13.80;99.90;;;;;;5030942;28;20439;-74
2022/09/09 02:30:33;;;;;;;12.82;8.43;;;13.80;99.90;;;;;;5030738;28;20132;-75
2022/09/09 02:33:02;;;;;;;15.07;9.05;;;13.80;99.90;;;;;;5029131;28;20044;-77
2022/09/09 02:35:30;;;;;;;16.50;9.60;;;13.70;99.90;;;;;;5028997;28;20064;-75
2022/09/09 02:38:01;;;;;;;14.98;8.90;;;13.80;99.90;;;;;;5030438;28;20132;-73
2022/09/09 02:40:32;;;;;;;17.98;8.48;;;13.80;99.90;;;;;;5026812;28;20065;-74
2022/09/09 02:43:02;;;;;;;15.30;9.43;;;13.90;99.90;;;;;;5010970;28;20038;-74
2022/09/09 02:45:39;;;;;;;13.05;8.20;;;13.90;99.90;;;;;;5010298;28;20093;-73
2022/09/09 02:48:22;;;;;;;13.60;8.50;;;13.90;99.90;;;;;;5008547;28;20546;-73
2022/09/09 02:50:57;;;;;;;13.35;9.40;;;13.90;99.90;;;;;;5010546;28;20046;-73
2022/09/09 02:53:47;;;;;;;13.02;8.38;;;13.90;99.90;;;;;;5018970;28;20045;-74
2022/09/09 02:56:16;;;;;;;12.13;8.07;;;14.00;99.90;;;;;;5028586;28;20509;-73
2022/09/09 02:58:54;;;;;;;17.55;8.57;;;14.00;99.90;;;;;;5029937;28;20037;-74
2022/09/09 03:01:23;;;;;;;13.45;9.32;;;14.00;99.90;;;;;;5029650;28;20103;-73
2022/09/09 03:03:49;;;;;;;18.58;9.27;;;14.00;99.90;;;;;;5027496;28;20049;-75
2022/09/09 03:06:14;;;;;;;11.07;8.32;;;14.10;99.90;;;;;;5029979;28;20053;-75
2022/09/09 03:08:40;;;;;;;14.30;8.98;;;14.10;99.90;;;;;;5028179;28;20361;-77
2022/09/09 03:11:06;;;;;;;12.45;8.10;;;14.20;99.90;;;;;;5029541;28;20057;-75
2022/09/09 03:13:33;;;;;;;15.50;8.80;;;14.10;99.90;;;;;;5025918;28;20081;-75
2022/09/09 03:15:59;;;;;;;13.02;8.38;;;14.10;99.90;;;;;;5010009;28;20520;-77
2022/09/09 03:18:25;;;;;;;12.52;8.40;;;14.20;99.90;;;;;;5019516;28;20085;-76
2022/09/09 03:20:51;;;;;;;15.95;8.45;;;14.20;99.90;;;;;;5029790;28;20096;-79
2022/09/09 03:23:17;;;;;;;12.70;6.45;;;14.20;99.90;;;;;;5027808;28;20045;-78
2022/09/09 03:25:49;;;;;;;10.98;7.15;;;14.20;99.90;;;;;;5028373;28;20050;-80
2022/09/09 03:28:15;;;;;;;12.07;7.25;;;14.20;99.90;;;;;;5029575;28;20041;-77
2022/09/09 03:30:41;;;;;;;14.48;6.57;;;14.30;99.90;;;;;;5028505;28;20056;-76
2022/09/09 03:33:06;;;;;;;12.73;6.53;;;14.30;99.90;;;;;;5028961;28;20040;-77
2022/09/09 03:35:32;;;;;;;10.32;7.05;;;14.30;99.90;;;;;;5029440;28;20124;-75
2022/09/09 03:37:58;;;;;;;11.93;6.30;;;14.30;99.90;;;;;;5028067;28;20064;-75
2022/09/09 03:40:23;;;;;;;9.90;6.68;;;14.40;99.90;;;;;;5029140;28;20049;-75
2022/09/09 03:42:49;;;;;;;14.57;6.35;;;14.30;99.90;;;;;;5028762;28;20038;-75
2022/09/09 03:45:15;;;;;;;11.05;6.03;;;14.40;99.90;;;;;;5026299;28;20137;-74
2022/09/09 03:47:40;;;;;;;10.07;5.68;;;14.30;99.90;;;;;;5008065;28;20100;-75
2022/09/09 03:50:09;;;;;;;13.10;5.82;;;14.30;99.90;;;;;;5008389;28;20060;-75
2022/09/09 03:52:39;;;;;;;10.70;5.70;;;14.30;99.90;;;;;;5009594;28;20065;-75
2022/09/09 03:55:05;;;;;;;11.57;5.80;;;14.30;99.90;;;;;;5009430;28;20137;-74
2022/09/09 03:57:31;;;;;;;10.98;5.82;;;14.30;99.90;;;;;;5019389;28;20112;-74
2022/09/09 03:59:57;;;;;;;11.27;5.35;;;14.30;99.90;;;;;;5028691;28;20049;-75
2022/09/09 04:02:23;;;;;;;8.98;5.55;;;14.50;99.90;;;;;;5031019;28;20392;-77
2022/09/09 04:04:49;;;;;;;10.30;5.57;;;14.40;99.90;;;;;;5031602;28;20050;-78
2022/09/09 04:07:15;;;;;;;9.77;5.15;;;14.30;99.90;;;;;;5032842;28;20049;-74
2022/09/09 04:09:41;;;;;;;8.65;4.95;;;14.40;99.90;;;;;;5033115;28;20046;-73
2022/09/09 04:12:07;;;;;;;9.70;5.28;;;14.40;99.90;;;;;;5031104;28;20057;-76
2022/09/09 04:14:32;;;;;;;10.80;5.30;;;14.40;99.90;;;;;;5032587;28;20436;-76
2022/09/09 04:16:59;;;;;;;10.88;5.70;;;14.50;99.90;;;;;;5032471;28;20038;-76
2022/09/09 04:19:25;;;;;;;7.80;4.30;;;14.40;99.90;;;;;;5032502;28;20060;-76
2022/09/09 04:21:51;;;;;;;7.97;5.40;;;14.40;99.90;;;;;;5032934;28;20547;-77
2022/09/09 04:24:17;;;;;;;8.65;4.80;;;14.40;99.90;;;;;;5032976;28;20152;-77
2022/09/09 04:26:43;;;;;;;11.88;5.38;;;14.40;99.90;;;;;;5033050;28;20183;-75
2022/09/09 04:29:09;;;;;;;8.65;4.80;;;14.40;99.90;;;;;;5014443;28;20503;-78
2022/09/09 04:31:35;;;;;;;9.27;5.55;;;14.50;99.90;;;;;;5031289;28;20064;-79
2022/09/09 04:34:05;;;;;;;9.07;5.65;;;14.50;99.90;;;;;;5032354;28;20053;-77
2022/09/09 04:36:32;;;;;;;9.25;5.45;;;14.50;99.90;;;;;;5032585;28;20120;-75
2022/09/09 04:38:57;;;;;;;9.27;5.00;;;14.50;99.90;;;;;;5031879;28;20049;-75
2022/09/09 04:41:23;;;;;;;8.07;4.90;;;14.50;99.90;;;;;;5032074;28;20044;-76
2022/09/09 04:43:49;;;;;;;8.32;5.25;;;14.50;99.90;;;;;;5031853;28;20380;-78
2022/09/09 04:46:17;;;;;;;9.45;5.72;;;14.60;99.90;;;;;;5032490;28;20093;-75
2022/09/09 04:48:42;;;;;;;9.05;6.03;;;14.50;99.90;;;;;;5032435;28;20042;-77
2022/09/09 04:51:12;;;;;;;9.85;5.32;;;14.70;99.90;;;;;;5030469;28;20068;-76
2022/09/09 04:53:39;;;;;;;12.20;5.45;;;14.50;99.90;;;;;;5032273;28;20051;-78
2022/09/09 04:56:07;;;;;;;9.13;5.18;;;14.50;99.90;;;;;;5032607;28;20058;-76
2022/09/09 04:58:33;;;;;;;9.73;5.60;;;14.50;99.90;;;;;;5032829;28;20439;-76
2022/09/09 05:01:14;;;;;;;10.23;5.70;;;14.50;99.90;;;;;;5030552;28;20048;-79
2022/09/09 05:03:40;;;;;;;9.32;5.57;;;14.50;99.90;;;;;;5032620;28;20068;-76
2022/09/09 05:06:09;;;;;;;10.23;6.07;;;14.50;99.90;;;;;;5030735;28;20053;-76
2022/09/09 05:08:39;;;;;;;10.23;5.75;;;14.50;99.90;;;;;;5032351;28;20141;-77
2022/09/09 05:11:26;;;;;;;8.90;5.72;;;14.50;99.90;;;;;;5030221;28;20830;-76
2022/09/09 05:13:53;;;;;;;11.20;6.97;;;14.50;99.90;;;;;;5030632;28;20115;-76
2022/09/09 05:16:20;;;;;;;11.35;6.50;;;14.50;99.90;;;;;;5031036;28;20069;-76
2022/09/09 05:18:46;;;;;;;9.15;6.03;;;14.50;99.90;;;;;;5031907;28;20511;-76
2022/09/09 05:21:13;;;;;;;11.35;6.50;;;14.50;99.90;;;;;;5031795;28;20041;-76
2022/09/09 05:23:39;;;;;;;13.68;7.88;;;14.50;99.90;;;;;;5029763;28;20133;-75
2022/09/09 05:26:06;;;;;;;9.85;7.10;;;14.60;99.90;;;;;;5031798;28;20060;-75
2022/09/09 05:28:35;;;;;;;11.38;7.78;;;14.50;99.90;;;;;;5013932;28;20042;-77
2022/09/09 05:31:04;;;;;;;14.95;7.18;;;14.50;99.90;;;;;;5032054;28;20102;-78
2022/09/09 05:33:31;;;;;;;10.98;7.65;;;14.50;99.90;;;;;;5031691;28;20049;-76
2022/09/09 05:36:07;;;;;;;12.25;7.75;;;14.50;99.90;;;;;;5030130;28;20057;-75
2022/09/09 05:38:33;;;;;;;10.85;7.78;;;14.50;99.90;;;;;;5031206;28;20090;-75
2022/09/09 05:41:00;;;;;;;13.27;8.18;;;14.50;99.90;;;;;;5031546;28;20072;-75
2022/09/09 05:43:27;;;;;;;13.77;8.20;;;14.50;99.90;;;;;;5029746;28;20057;-77
2022/09/09 05:46:10;;;;;;;12.25;7.78;;;14.50;99.90;;;;;;5031585;28;20481;-76
2022/09/09 05:48:37;;;;;;;14.48;7.80;;;14.50;99.90;;;;;;5031354;28;20543;-78
2022/09/09 05:51:04;;;;;;;11.43;7.07;;;14.50;99.90;;;;;;5029894;28;20049;-76
2022/09/09 05:53:37;;;;;;;14.32;8.30;;;14.50;99.90;;;;;;5029660;28;20041;-77
2022/09/09 05:56:10;;;;;;;11.77;8.45;;;14.50;99.90;;;;;;5031463;28;20124;-77
2022/09/09 05:58:36;;;;;;;11.43;8.25;;;14.50;99.90;;;;;;5031263;28;20409;-75
2022/09/09 06:01:08;;;;;;;11.65;7.40;;;14.50;99.90;;;;;;5029850;28;20046;-80
2022/09/09 06:03:38;;;;;;;12.73;8.15;;;14.50;99.90;;;;;;5031245;28;20370;-74
2022/09/09 06:06:06;;;;;;;14.07;8.82;;;14.60;99.90;;;;;;5010988;28;20117;-78
2022/09/09 06:08:34;;;;;;;14.45;7.80;;;14.60;99.90;;;;;;5010041;28;20096;-76
2022/09/09 06:11:05;;;;;;;12.73;8.27;;;14.60;99.90;;;;;;5009389;28;20062;-76
2022/09/09 06:13:31;;;;;;;11.63;8.13;;;14.60;99.90;;;;;;5013640;28;20064;-80
2022/09/09 06:15:58;;;;;;;12.77;8.55;;;14.60;99.90;;;;;;5031092;28;20049;-77
2022/09/09 06:18:25;;;;;;;11.50;8.10;;;14.60;99.90;;;;;;5030551;28;20096;-77
2022/09/09 06:20:55;;;;;;;13.15;8.02;;;14.60;99.90;;;;;;5028707;28;20065;-75
2022/09/09 06:23:20;;;;;;;10.45;7.63;;;14.60;99.90;;;;;;5028429;28;20045;-75
2022/09/09 06:25:46;;;;;;;11.95;7.75;;;14.70;99.90;;;;;;5030716;28;20053;-78
2022/09/09 06:28:13;;;;;;;12.80;8.20;;;14.70;99.90;;;;;;5030458;28;20095;-76
2022/09/09 06:30:39;;;;;;;12.40;8.70;;;14.80;99.90;;;;;;5029529;28;20037;-79
2022/09/09 06:33:05;;;;;;;11.45;6.60;;;14.80;99.90;;;;;;5030985;28;20501;-78
2022/09/09 06:35:31;;;;;;;12.45;7.40;;;14.80;99.90;;;;;;5030333;28;20041;-80
2022/09/09 06:37:58;;;;;;;11.35;7.22;;;14.90;99.90;;;;;;5029520;28;20488;-81
2022/09/09 06:40:24;;;;;;;9.93;6.88;;;14.90;99.90;;;;;;5029092;28;20104;-76
2022/09/09 06:42:50;;;;;;;13.52;7.00;;;14.90;99.90;;;;;;5030550;28;20045;-77
2022/09/09 06:45:16;;;;;;;11.55;6.82;;;14.90;99.90;;;;;;5028644;28;20330;-77
2022/09/09 06:47:42;;;;;;;11.82;6.70;;;14.90;99.90;;;;;;5029158;28;20138;-77
2022/09/09 06:50:10;;;;;;;9.13;6.53;;;15.00;99.90;;;;;;5028818;28;20088;-76
2022/09/09 06:52:36;;;;;;;8.85;6.78;;;14.90;99.90;;;;;;5024232;28;20072;-76
2022/09/09 06:55:03;;;;;;;10.93;6.85;;;14.90;99.90;;;;;;5030031;28;20049;-74
2022/09/09 06:57:29;;;;;;;13.75;6.97;;;14.90;99.90;;;;;;5025547;28;20056;-76
2022/09/09 06:59:54;;;;;;;12.52;6.82;;;15.00;99.90;;;;;;5011952;28;20053;-75
2022/09/09 07:02:21;;;;;;;8.40;6.35;;;15.00;99.90;;;;;;5029165;28;20081;-81
2022/09/09 07:04:46;;;;;;;10.52;6.65;;;15.10;99.90;;;;;;5030199;28;20045;-78
2022/09/09 07:07:13;;;;;;;10.52;7.05;;;15.00;99.90;;;;;;5029293;28;20048;-76
2022/09/09 07:09:40;;;;;;;9.07;6.50;;;15.00;99.90;;;;;;5029591;28;20045;-78
2022/09/09 07:12:06;;;;;;;8.45;6.13;;;15.10;99.90;;;;;;5029882;28;20096;-76
2022/09/09 07:14:33;;;;;;;9.02;6.43;;;15.10;99.90;;;;;;5029586;28;20606;-75
2022/09/09 07:17:00;;;;;;;10.35;6.55;;;15.10;99.90;;;;;;5022375;28;20041;-73
2022/09/09 07:19:26;;;;;;;9.23;6.40;;;15.20;99.90;;;;;;5018247;28;20112;-79
2022/09/09 07:21:51;;;;;;;15.25;6.55;;;15.20;99.90;;;;;;5029794;28;20037;-74
2022/09/09 07:24:17;;;;;;;9.65;7.07;;;15.20;99.90;;;;;;5029974;28;20048;-76
2022/09/09 07:26:43;;;;;;;8.82;6.18;;;15.20;99.90;;;;;;5029426;28;20038;-79
2022/09/09 07:29:09;;;;;;;9.23;6.25;;;15.40;99.90;;;;;;5029317;28;20053;-79
2022/09/09 07:31:38;;;;;;;10.48;6.60;;;15.30;99.90;;;;;;5029646;28;20404;-75
2022/09/09 07:34:05;;;;;;;8.73;6.20;;;15.40;99.90;;;;;;5029610;28;20057;-89
2022/09/09 07:36:33;;;;;;;11.40;5.57;;;15.40;99.90;;;;;;5027883;28;20092;-78
2022/09/09 07:39:02;;;;;;;10.63;6.05;;;15.50;99.90;;;;;;5029346;28;20055;-79
2022/09/09 07:41:49;;;;;;;13.18;6.80;;;15.50;99.90;;;;;;5028860;28;20140;-78
2022/09/09 07:44:24;;;;;;;8.45;5.95;;;15.60;99.90;;;;;;5028910;28;20442;-77
2022/09/09 07:46:50;;;;;;;9.35;5.93;;;15.60;99.90;;;;;;5029127;28;20120;-77
2022/09/09 07:49:19;;;;;;;9.23;6.25;;;15.60;99.90;;;;;;5029008;28;20076;-80
2022/09/09 07:51:47;;;;;;;10.48;5.68;;;15.70;99.90;;;;;;5027631;28;20053;-78
2022/09/09 07:54:15;;;;;;;9.15;5.40;;;15.80;99.90;;;;;;5025498;28;20052;-80
2022/09/09 07:56:42;;;;;;;9.85;5.57;;;15.80;99.90;;;;;;5027565;28;20057;-77
2022/09/09 07:59:09;;;;;;;7.43;5.13;;;15.80;99.90;;;;;;5016614;28;20559;-81
2022/09/09 08:01:41;;;;;;;8.05;5.30;;;15.90;99.90;;;;;;5008553;28;20054;-78
2022/09/09 08:04:09;;;;;;;9.45;5.22;;;15.90;99.90;;;;;;5009742;28;20113;-77
2022/09/09 08:06:40;;;;;;;8.05;4.93;;;16.00;99.90;;;;;;5029172;28;20512;-81
2022/09/09 08:09:07;;;;;;;9.57;4.82;;;16.10;99.90;;;;;;5027727;28;20049;-78
2022/09/09 08:11:35;;;;;;;9.13;5.15;;;16.20;99.90;;;;;;5014945;28;20408;-80
2022/09/09 08:14:02;;;;;;;7.63;4.93;;;16.20;99.90;;;;;;5010410;28;20061;-76
2022/09/09 08:16:40;;;;;;;8.98;4.35;;;16.30;99.90;;;;;;5028337;28;20041;-81
2022/09/09 08:19:07;;;;;;;8.93;4.88;;;16.30;99.90;;;;;;5025803;28;20377;-80
2022/09/09 08:21:34;;;;;;;7.80;4.97;;;16.40;99.90;;;;;;5029245;28;20061;-80
2022/09/09 08:24:02;;;;;;;9.10;4.75;;;16.40;99.90;;;;;;5027998;28;20141;-81
2022/09/09 08:26:30;;;;;;;10.85;4.43;;;16.50;99.90;;;;;;5027877;28;20041;-79
2022/09/09 08:28:58;;;;;;;7.70;4.72;;;16.60;99.90;;;;;;5027796;28;20065;-83
2022/09/09 08:31:31;;;;;;;11.23;5.47;;;16.80;99.90;;;;;;5029415;28;20045;-81
2022/09/09 08:34:04;;;;;;;10.82;5.10;;;17.00;99.90;;;;;;5027973;28;20504;-84
2022/09/09 08:36:33;;;;;;;7.65;4.55;;;17.30;99.90;;;;;;5030660;28;20049;-80
2022/09/09 08:39:00;;;;;;;10.93;4.68;;;17.40;99.90;;;;;;5029839;28;20400;-81
2022/09/09 08:41:28;;;;;;;8.63;4.15;;;17.70;99.90;;;;;;5027953;28;20511;-80
2022/09/09 08:44:20;;;;;;;7.97;3.92;;;17.70;99.90;;;;;;5029212;28;20084;-80
2022/09/09 08:47:24;;;;;;;15.18;4.88;;;17.80;99.90;;;;;;5028658;28;20045;-83
2022/09/09 08:50:02;;;;;;;10.52;4.20;;;18.00;99.90;;;;;;5032502;28;20049;-80
2022/09/09 08:52:59;;;;;;;14.55;4.15;;;18.00;99.90;;;;;;5032120;28;20570;-85
2022/09/09 08:55:36;;;;;;;9.68;3.95;;;18.20;99.90;;;;;;5022550;28;20089;-80
2022/09/09 08:58:11;;;;;;;13.00;4.25;;;18.30;99.90;;;;;;5012918;28;20049;-80
2022/09/09 09:00:52;;;;;;;7.22;3.58;;;18.40;99.90;;;;;;5012737;28;20133;-82
2022/09/09 09:03:54;;;;;;;8.52;4.07;;;18.60;99.90;;;;;;5000774;28;20103;-82
2022/09/09 09:06:36;;;;;;;12.25;4.00;;;18.70;99.90;;;;;;5032404;28;20049;-83
2022/09/09 09:09:04;;;;;;;8.90;3.50;;;18.70;99.90;;;;;;5031591;28;20057;-84
2022/09/09 09:11:39;;;;;;;7.68;3.08;;;18.70;99.90;;;;;;5030775;28;20136;-85
2022/09/09 09:14:34;;;;;;;8.05;3.00;;;18.80;99.90;;;;;;5032467;28;20060;-81
2022/09/09 09:17:06;;;;;;;9.43;2.87;;;18.90;99.90;;;;;;5023525;28;20389;-84
2022/09/09 09:19:38;;;;;;;9.80;2.88;;;19.00;99.90;;;;;;5032462;28;20418;-86
2022/09/09 09:22:21;;;;;;;9.32;3.00;;;19.20;99.90;;;;;;5032165;28;20056;-80
2022/09/09 09:25:01;;;;;;;10.50;2.90;;;19.20;99.90;;;;;;5011707;28;20061;-91
2022/09/09 09:27:51;;;;;;;10.35;2.90;;;19.20;99.90;;;;;;5013036;28;20069;-86
2022/09/09 09:30:20;;;;;;;7.75;2.53;;;19.20;99.90;;;;;;5013789;28;20050;-81
2022/09/09 09:33:02;;;;;;;11.27;2.70;;;19.30;99.90;;;;;;5012887;28;20045;-84
2022/09/09 09:35:28;;;;;;;12.45;3.30;;;19.50;99.90;;;;;;5013290;28;20058;-80
2022/09/09 09:37:54;;;;;;;14.13;3.15;;;19.40;99.90;;;;;;5012141;28;20044;-86
2022/09/09 09:40:22;;;;;;;9.73;2.90;;;19.30;99.90;;;;;;5012608;28;20061;-80
2022/09/09 09:42:54;;;;;;;12.00;2.95;;;19.40;99.90;;;;;;5011802;28;20088;-81
2022/09/09 09:45:28;;;;;;;5.80;2.13;;;19.30;99.90;;;;;;5011971;28;20041;-88
2022/09/09 09:48:05;;;;;;;5.82;2.08;;;19.30;99.90;;;;;;5012067;28;20046;-78
2022/09/09 09:50:32;;;;;;;7.97;2.17;;;19.20;99.90;;;;;;5023496;28;20115;-81
2022/09/09 09:53:02;;;;;;;9.18;2.05;;;19.20;99.90;;;;;;5031130;28;20041;-86
2022/09/09 09:55:30;;;;;;;10.80;2.45;;;19.20;99.90;;;;;;5031650;28;20049;-81
2022/09/09 09:58:07;;;;;;;13.20;2.20;;;19.20;99.90;;;;;;5029587;28;20089;-85
2022/09/09 10:00:34;;;;;;;11.65;2.50;;;19.20;99.90;;;;;;5031256;28;20044;-83
2022/09/09 10:03:01;;;;;;;11.73;2.42;;;19.20;99.90;;;;;;5031035;28;20135;-77
2022/09/09 10:05:29;;;;;;;9.55;2.42;;;19.30;99.90;;;;;;5031261;28;20042;-85
2022/09/09 10:08:13;;;;;;;8.15;2.00;;;19.30;99.90;;;;;;5031386;28;20132;-82
2022/09/09 10:11:04;;;;;;;9.15;2.10;;;19.20;99.90;;;;;;5029237;28;20111;-87
2022/09/09 10:13:50;;;;;;;11.70;2.28;;;19.20;99.90;;;;;;5029513;28;20128;-83
2022/09/09 10:16:54;;;;;;;10.68;2.03;;;19.20;99.90;;;;;;5013270;28;20137;-86
2022/09/09 10:19:36;;;;;;;10.63;2.35;;;19.20;99.90;;;;;;5031096;28;20037;-84
2022/09/09 10:22:41;;;;;;;11.85;1.98;;;19.30;99.90;;;;;;5030898;28;20048;-84
2022/09/09 10:25:18;;;;;;;10.57;2.23;;;19.30;99.90;;;;;;5029326;28;20073;-83
2022/09/09 10:27:50;;;;;;;12.85;2.00;;;19.30;99.90;;;;;;5030539;28;20064;-82
2022/09/09 10:30:23;;;;;;;11.80;2.65;;;19.40;99.90;;;;;;5030589;28;20050;-86
2022/09/09 10:33:00;;;;;;;8.05;1.67;;;19.70;99.90;;;;;;5029432;28;20049;-93
2022/09/09 10:35:34;;;;;;;6.97;2.10;;;20.00;99.90;;;;;;5029627;28;20056;-89
2022/09/09 10:38:02;;;;;;;7.75;1.75;;;19.90;99.90;;;;;;5029007;28;20566;-85
2022/09/09 10:40:35;;;;;;;7.57;2.20;;;20.00;99.90;;;;;;5030593;28;20074;-86
2022/09/09 10:43:24;;;;;;;6.82;1.67;;;20.00;99.90;;;;;;5030581;28;20046;-80
2022/09/09 10:46:12;;;;;;;10.93;1.85;;;20.20;99.90;;;;;;5013076;28;20053;-84
2022/09/09 10:49:15;;;;;;;10.98;2.08;;;20.40;99.90;;;;;;5030245;28;20045;-80
2022/09/09 10:52:01;;;;;;;7.25;1.33;;;20.70;99.90;;;;;;5029923;28;20041;-83
2022/09/09 10:54:48;;;;;;;7.75;2.25;;;20.70;99.90;;;;;;5030376;28;20424;-84
2022/09/09 10:57:22;;;;;;;11.15;2.65;;;21.00;99.90;;;;;;5030489;28;20138;-89
2022/09/09 10:59:53;;;;;;;6.57;1.83;;;21.20;99.90;;;;;;5029852;28;20052;-87
2022/09/09 11:02:27;;;;;;;8.05;1.40;;;21.10;99.90;;;;;;5030052;28;20132;-88
2022/09/09 11:04:57;;;;;;;;;;;21.20;99.90;;;;;;5030576;28;20099;-87
2022/09/09 11:07:44;;;;;;;6.70;1.25;;;21.40;99.90;;;;;;5028874;28;19931;-85
2022/09/09 11:10:32;;;;;;;6.38;1.50;;;21.70;99.90;;;;;;5021155;28;20042;-85
2022/09/09 11:13:04;;;;;;;11.85;1.60;;;21.70;99.90;;;;;;5027108;28;20060;-80
2022/09/09 11:15:41;;;;;;;6.80;1.35;;;21.70;99.90;;;;;;5029643;28;20045;-87
2022/09/09 11:18:16;;;;;;;7.60;1.83;;;21.50;99.90;;;;;;5026203;28;20098;-86
2022/09/09 11:20:44;;;;;;;5.00;1.23;;;21.50;99.90;;;;;;5028676;28;20115;-89
2022/09/09 11:23:15;;;;;;;7.72;2.53;;;21.60;99.90;;;;;;5031081;28;20516;-84
2022/09/09 11:25:45;;;;;;;5.65;1.33;;;21.50;99.90;;;;;;5031665;28;20049;-84
2022/09/09 11:28:40;;;;;;;6.25;1.42;;;21.50;99.90;;;;;;5029794;28;20049;-85
2022/09/09 11:31:36;;;;;;;6.43;1.13;;;21.40;99.90;;;;;;5029338;28;20131;-83
2022/09/09 11:34:23;;;;;;;8.80;1.70;;;21.50;99.90;;;;;;5028219;28;20128;-86
2022/09/09 11:37:44;;;;;;;7.65;1.33;;;21.40;99.90;;;;;;5029905;28;20120;-86
2022/09/09 11:40:19;;;;;;;8.00;1.48;;;21.30;99.90;;;;;;4986715;28;20054;-86
2022/09/09 11:42:47;;;;;;;5.40;1.20;;;21.20;99.90;;;;;;4972520;28;20050;-85
2022/09/09 11:45:27;;;;;;;5.82;1.30;;;21.10;99.90;;;;;;4988297;28;20062;-85
2022/09/09 11:48:00;;;;;;;6.45;1.25;;;21.20;99.90;;;;;;4988483;28;20149;-81
2022/09/09 11:50:26;;;;;;;6.80;1.73;;;21.20;99.90;;;;;;4984684;28;20082;-89
2022/09/09 11:53:04;;;;;;;10.10;1.48;;;21.00;99.90;;;;;;4972044;28;20429;-87
2022/09/09 11:55:34;;;;;;;8.63;1.50;;;20.90;99.90;;;;;;4983579;28;20046;-85
2022/09/09 11:58:10;;;;;;;8.70;1.90;;;20.80;99.90;;;;;;4987590;28;20386;-83
2022/09/09 12:00:47;;;;;;;7.47;1.60;;;20.70;99.90;;;;;;4987307;28;20057;-85
2022/09/09 12:03:34;;;;;;;7.15;1.50;;;20.80;99.90;;;;;;4972198;28;20058;-84
2022/09/09 12:06:15;;;;;;;5.93;1.42;;;20.70;99.90;;;;;;4974095;28;20133;-86
2022/09/09 12:08:44;;;;;;;6.43;1.60;;;20.90;99.90;;;;;;4990551;28;20050;-88
2022/09/09 12:11:11;;;;;;;6.72;1.38;;;20.80;99.90;;;;;;4973187;28;20145;-92
2022/09/09 12:13:37;;;;;;;6.95;1.50;;;20.90;99.90;;;;;;4975333;28;20054;-85
2022/09/09 12:16:05;;;;;;;6.97;1.50;;;21.00;99.90;;;;;;4996132;28;20057;-83
2022/09/09 12:18:36;;;;;;;6.57;1.38;;;20.90;99.90;;;;;;5029367;28;20132;-83
2022/09/09 12:21:23;;;;;;;12.48;1.73;;;20.90;99.90;;;;;;5025421;28;20046;-81
2022/09/09 12:24:02;;;;;;;6.22;1.48;;;20.80;99.90;;;;;;5013595;28;20056;-80
2022/09/09 12:26:41;;;;;;;8.07;1.20;;;20.90;99.90;;;;;;5013534;28;20057;-80
2022/09/09 12:29:35;;;;;;;6.85;1.58;;;21.00;99.90;;;;;;5033413;28;20372;-81
2022/09/09 12:32:14;;;;;;;7.50;1.50;;;21.30;99.90;;;;;;4991441;28;20069;-83
2022/09/09 12:34:47;;;;;;;6.40;1.45;;;21.50;99.90;;;;;;4990657;28;20085;-79
2022/09/09 12:37:27;;;;;;;10.05;1.25;;;21.60;99.90;;;;;;4958360;28;20130;-85
2022/09/09 12:39:58;;;;;;;7.90;1.63;;;21.60;99.90;;;;;;4991209;28;20041;-85
2022/09/09 12:42:24;;;;;;;6.65;1.15;;;21.80;99.90;;;;;;4974398;28;20405;-79
2022/09/09 12:44:59;;;;;;;4.38;1.15;;;21.90;99.90;;;;;;4974971;28;20077;-79
2022/09/09 12:47:43;;;;;;;6.43;1.35;;;22.10;99.90;;;;;;4990282;28;20038;-87
2022/09/09 12:50:21;;;;;;;6.60;1.35;;;22.20;99.90;;;;;;4991137;28;20101;-81
2022/09/09 12:52:49;;;;;;;7.40;1.23;;;22.20;99.90;;;;;;4987744;28;20054;-81
2022/09/09 12:55:25;;;;;;;4.55;1.02;;;22.10;99.90;;;;;;4972024;28;20083;-87
2022/09/09 12:57:55;;;;;;;4.55;1.13;;;22.10;99.90;;;;;;4980957;28;20043;-85
2022/09/09 13:00:24;;;;;;;8.00;1.20;;;21.90;99.90;;;;;;4990577;28;20123;-81
2022/09/09 13:02:55;;;;;;;8.02;1.55;;;22.00;99.90;;;;;;4975654;28;20051;-81
2022/09/09 13:05:23;;;;;;;6.80;1.10;;;22.10;99.90;;;;;;4971169;28;20126;-83
2022/09/09 13:07:49;;;;;;;6.13;1.20;;;22.20;99.90;;;;;;4971716;28;20069;-81
2022/09/09 13:10:26;;;;;;;4.78;1.15;;;22.00;99.90;;;;;;5012743;28;20052;-81